createdAt,value
2022-10-22T00:01:04.474Z,17.28
2022-10-22T00:03:31.827Z,17.30
2022-10-22T00:05:58.593Z,17.26
2022-10-22T00:08:26.724Z,16.25
2022-10-22T00:10:53.462Z,16.22
2022-10-22T00:13:20.805Z,16.30
2022-10-22T00:15:47.484Z,16.74
2022-10-22T00:18:14.147Z,16.81
2022-10-22T00:20:40.986Z,16.97
2022-10-22T00:23:07.692Z,17.05
2022-10-22T00:25:36.022Z,17.25
2022-10-22T00:28:03.997Z,17.31
2022-10-22T00:30:30.873Z,17.09
2022-10-22T00:32:57.473Z,16.49
2022-10-22T00:35:24.143Z,16.48
2022-10-22T00:37:50.797Z,16.67
2022-10-22T00:40:17.571Z,16.59
2022-10-22T00:42:44.195Z,16.05
2022-10-22T00:45:10.783Z,15.57
2022-10-22T00:47:39.386Z,15.51
2022-10-22T00:50:17.701Z,15.86
2022-10-22T00:52:44.583Z,15.96
2022-10-22T00:55:14.891Z,15.41
2022-10-22T00:57:42.690Z,16.05
2022-10-22T01:00:09.830Z,16.39
2022-10-22T01:02:36.739Z,16.46
2022-10-22T01:05:03.660Z,15.85
2022-10-22T01:07:30.951Z,14.88
2022-10-22T01:10:19.354Z,14.73
2022-10-22T01:13:22.353Z,15.40
2022-10-22T01:16:10.341Z,15.30
2022-10-22T01:19:00.745Z,15.25
2022-10-22T01:21:45.921Z,15.67
2022-10-22T01:24:52.366Z,15.78
2022-10-22T01:27:46.221Z,15.81
2022-10-22T01:30:15.513Z,15.68
2022-10-22T01:32:57.954Z,15.34
2022-10-22T01:38:12.785Z,16.27
2022-10-22T01:40:40.760Z,16.76
2022-10-22T01:43:09.987Z,16.40
2022-10-22T01:45:51.181Z,17.05
2022-10-22T01:48:34.555Z,17.26
2022-10-22T01:51:25.608Z,16.86
2022-10-22T01:54:26.075Z,17.17
2022-10-22T01:57:27.137Z,16.44
2022-10-22T02:00:04.006Z,16.46
2022-10-22T02:02:55.616Z,16.65
2022-10-22T02:05:26.276Z,17.09
2022-10-22T02:08:09.997Z,16.59
2022-10-22T02:10:43.880Z,16.80
2022-10-22T02:13:17.268Z,17.09
2022-10-22T02:15:49.015Z,16.52
2022-10-22T02:18:20.712Z,16.12
2022-10-22T02:20:48.802Z,15.98
2022-10-22T02:23:16.308Z,16.40
2022-10-22T02:25:49.535Z,16.34
2022-10-22T02:28:19.782Z,16.79
2022-10-22T02:30:56.873Z,16.95
2022-10-22T02:33:31.278Z,16.89
2022-10-22T02:36:01.282Z,16.21
2022-10-22T02:38:30.579Z,16.28
2022-10-22T02:40:57.666Z,16.42
2022-10-22T02:43:25.424Z,16.43
2022-10-22T02:45:52.196Z,16.21
2022-10-22T02:48:18.873Z,16.40
2022-10-22T02:50:45.621Z,16.50
2022-10-22T02:53:13.490Z,16.37
2022-10-22T02:55:40.378Z,16.51
2022-10-22T02:58:07.072Z,16.75
2022-10-22T03:00:33.777Z,17.23
2022-10-22T03:03:00.519Z,17.36
2022-10-22T03:05:27.378Z,16.77
2022-10-22T03:07:53.982Z,16.46
2022-10-22T03:10:20.596Z,16.65
2022-10-22T03:12:47.174Z,17.16
2022-10-22T03:15:14.239Z,17.28
2022-10-22T03:17:41.052Z,17.50
2022-10-22T03:20:08.292Z,17.60
2022-10-22T03:22:39.246Z,17.47
2022-10-22T03:25:10.930Z,17.52
2022-10-22T03:27:41.557Z,17.50
2022-10-22T03:30:09.848Z,17.63
2022-10-22T03:32:36.657Z,17.08
2022-10-22T03:35:06.161Z,17.18
2022-10-22T03:37:34.637Z,17.53
2022-10-22T03:40:02.282Z,17.18
2022-10-22T03:42:29.337Z,17.55
2022-10-22T03:44:56.053Z,17.06
2022-10-22T03:47:22.692Z,16.96
2022-10-22T03:49:49.350Z,16.73
2022-10-22T03:52:16.006Z,16.12
2022-10-22T03:54:42.865Z,16.39
2022-10-22T03:57:10.752Z,16.89
2022-10-22T03:59:40.407Z,17.23
2022-10-22T04:02:07.027Z,17.08
2022-10-22T04:04:33.802Z,16.92
2022-10-22T04:07:00.372Z,16.58
2022-10-22T04:09:27.019Z,16.67
2022-10-22T04:11:53.679Z,16.95
2022-10-22T04:14:40.295Z,17.14
2022-10-22T04:17:06.905Z,17.17
2022-10-22T04:19:33.526Z,16.95
2022-10-22T04:22:01.362Z,17.29
2022-10-22T04:24:28.110Z,17.19
2022-10-22T04:26:55.153Z,16.84
2022-10-22T04:29:21.754Z,17.24
2022-10-22T04:31:48.343Z,17.07
2022-10-22T04:34:15.068Z,17.14
2022-10-22T04:36:42.694Z,16.79
2022-10-22T04:39:09.304Z,17.22
2022-10-22T04:41:38.747Z,17.27
2022-10-22T04:44:07.612Z,17.09
2022-10-22T04:46:36.344Z,17.28
2022-10-22T04:49:03.186Z,17.23
2022-10-22T04:51:30.782Z,17.43
2022-10-22T04:53:57.379Z,17.32
2022-10-22T04:56:26.895Z,17.54
2022-10-22T04:58:57.211Z,17.41
2022-10-22T05:01:27.077Z,17.42
2022-10-22T05:03:56.034Z,17.40
2022-10-22T05:06:24.212Z,17.21
2022-10-22T05:08:56.293Z,17.06
2022-10-22T05:11:26.877Z,17.17
2022-10-22T05:13:55.155Z,17.33
2022-10-22T05:16:21.746Z,17.39
2022-10-22T05:18:48.725Z,16.81
2022-10-22T05:21:19.803Z,16.75
2022-10-22T05:23:48.863Z,16.96
2022-10-22T05:26:19.600Z,17.00
2022-10-22T05:28:48.576Z,17.05
2022-10-22T05:31:17.279Z,17.05
2022-10-22T05:33:44.472Z,16.96
2022-10-22T05:36:14.420Z,16.09
2022-10-22T05:38:41.006Z,16.59
2022-10-22T05:41:13.741Z,16.82
2022-10-22T05:43:40.947Z,16.60
2022-10-22T05:46:10.565Z,16.52
2022-10-22T05:48:38.026Z,16.65
2022-10-22T05:51:11.546Z,16.70
2022-10-22T05:53:41.310Z,16.52
2022-10-22T05:56:13.270Z,16.35
2022-10-22T05:58:39.910Z,15.96
2022-10-22T06:01:14.532Z,15.87
2022-10-22T06:03:42.143Z,16.16
2022-10-22T06:06:22.918Z,16.34
2022-10-22T06:08:52.216Z,16.12
2022-10-22T06:11:20.291Z,16.27
2022-10-22T06:13:47.794Z,16.20
2022-10-22T06:16:14.931Z,16.31
2022-10-22T06:18:42.001Z,16.51
2022-10-22T06:21:11.999Z,16.58
2022-10-22T06:23:39.786Z,16.60
2022-10-22T06:26:07.777Z,16.46
2022-10-22T06:28:35.330Z,16.20
2022-10-22T06:31:03.491Z,16.24
2022-10-22T06:33:32.694Z,16.13
2022-10-22T06:36:13.424Z,16.37
2022-10-22T06:38:40.317Z,16.33
2022-10-22T06:41:12.662Z,16.49
2022-10-22T06:43:40.136Z,16.55
2022-10-22T06:46:09.277Z,16.23
2022-10-22T06:48:36.429Z,15.65
2022-10-22T06:51:05.749Z,15.46
2022-10-22T06:53:32.686Z,14.96
2022-10-22T06:55:59.649Z,15.34
2022-10-22T06:58:26.246Z,14.90
2022-10-22T07:01:04.811Z,15.09
2022-10-22T07:03:31.578Z,15.52
2022-10-22T07:06:03.724Z,16.01
2022-10-22T07:08:31.031Z,16.03
2022-10-22T07:11:10.049Z,15.99
2022-10-22T07:13:36.956Z,16.77
2022-10-22T07:16:05.224Z,17.28
2022-10-22T07:18:34.193Z,17.52
2022-10-22T07:21:03.378Z,17.85
2022-10-22T07:23:30.710Z,18.13
2022-10-22T07:25:58.420Z,17.67
2022-10-22T07:28:25.323Z,16.44
2022-10-22T07:30:51.948Z,17.10
2022-10-22T07:33:18.677Z,17.28
2022-10-22T07:35:45.374Z,17.62
2022-10-22T07:38:12.239Z,17.72
2022-10-22T07:40:38.877Z,17.37
2022-10-22T07:43:06.798Z,17.61
2022-10-22T07:45:33.535Z,17.88
2022-10-22T07:48:00.141Z,18.05
2022-10-22T07:50:27.356Z,18.67
2022-10-22T07:52:56.076Z,19.08
2022-10-22T07:55:24.248Z,18.87
2022-10-22T07:57:52.904Z,19.42
2022-10-22T08:00:23.072Z,19.76
2022-10-22T08:02:52.486Z,19.80
2022-10-22T08:05:19.749Z,20.01
2022-10-22T08:07:46.559Z,19.95
2022-10-22T08:10:13.391Z,19.00
2022-10-22T08:12:41.052Z,19.13
2022-10-22T08:15:08.540Z,19.09
2022-10-22T08:17:35.235Z,19.20
2022-10-22T08:20:01.960Z,18.96
2022-10-22T08:22:28.618Z,19.06
2022-10-22T08:24:55.333Z,18.57
2022-10-22T08:27:21.964Z,18.74
2022-10-22T08:29:48.564Z,18.74
2022-10-22T08:32:15.383Z,18.24
2022-10-22T08:34:42.085Z,18.27
2022-10-22T08:37:08.915Z,18.33
2022-10-22T08:39:35.830Z,18.27
2022-10-22T08:42:30.167Z,18.24
2022-10-22T08:44:59.473Z,18.46
2022-10-22T08:47:52.227Z,17.82
2022-10-22T08:50:27.366Z,18.00
2022-10-22T08:53:02.086Z,17.63
2022-10-22T08:55:35.031Z,18.09
2022-10-22T08:58:41.612Z,17.62
2022-10-22T09:01:21.171Z,17.59
2022-10-22T09:04:00.264Z,17.88
2022-10-22T09:06:30.772Z,17.98
2022-10-22T09:09:00.186Z,17.65
2022-10-22T09:11:34.612Z,17.63
2022-10-22T09:14:03.435Z,17.70
2022-10-22T09:16:36.102Z,17.39
2022-10-22T09:19:27.158Z,17.81
2022-10-22T09:22:02.051Z,17.94
2022-10-22T09:24:53.223Z,17.77
2022-10-22T09:27:26.042Z,17.09
2022-10-22T09:29:52.692Z,17.06
2022-10-22T09:32:20.382Z,17.05
2022-10-22T09:34:49.311Z,17.21
2022-10-22T09:37:19.776Z,17.17
2022-10-22T09:39:52.652Z,17.10
2022-10-22T09:42:21.240Z,17.05
2022-10-22T09:44:59.651Z,17.29
2022-10-22T09:47:43.032Z,17.17
2022-10-22T09:50:29.243Z,17.22
2022-10-22T09:53:05.484Z,16.84
2022-10-22T09:55:32.456Z,17.20
2022-10-22T09:58:00.574Z,17.32
2022-10-22T10:00:28.046Z,16.78
2022-10-22T10:02:57.562Z,16.93
2022-10-22T10:05:33.404Z,17.26
2022-10-22T10:08:13.265Z,17.13
2022-10-22T10:10:52.249Z,17.52
2022-10-22T10:13:30.972Z,17.58
2022-10-22T10:16:09.802Z,17.63
2022-10-22T10:19:01.083Z,18.00
2022-10-22T10:21:49.766Z,17.79
2022-10-22T10:24:28.087Z,17.60
2022-10-22T10:27:00.444Z,18.12
2022-10-22T10:32:44.951Z,17.60
2022-10-22T10:35:40.813Z,17.39
2022-10-22T10:38:07.357Z,17.59
2022-10-22T10:40:55.663Z,17.65
2022-10-22T10:43:38.783Z,17.74
2022-10-22T10:46:24.855Z,17.99
2022-10-22T10:49:02.569Z,18.18
2022-10-22T10:51:40.307Z,17.65
2022-10-22T10:54:12.614Z,17.80
2022-10-22T10:56:42.200Z,17.48
2022-10-22T10:59:37.886Z,17.49
2022-10-22T11:02:42.892Z,18.06
2022-10-22T11:05:40.610Z,17.90
2022-10-22T11:08:21.524Z,18.14
2022-10-22T11:10:59.775Z,18.30
2022-10-22T11:13:38.359Z,18.17
2022-10-22T11:16:13.960Z,17.98
2022-10-22T11:18:53.450Z,17.77
2022-10-22T11:21:46.000Z,17.61
2022-10-22T11:24:15.349Z,18.16
2022-10-22T11:26:53.012Z,18.27
2022-10-22T11:29:29.420Z,18.34
2022-10-22T11:32:01.730Z,17.89
2022-10-22T11:34:43.272Z,18.05
2022-10-22T11:37:13.526Z,17.92
2022-10-22T11:39:53.749Z,18.06
2022-10-22T11:42:37.102Z,18.03
2022-10-22T11:45:06.213Z,17.62
2022-10-22T11:47:51.824Z,18.05
2022-10-22T11:50:21.627Z,17.88
2022-10-22T11:53:06.830Z,18.25
2022-10-22T11:55:46.894Z,18.07
2022-10-22T11:58:50.719Z,18.42
2022-10-22T12:01:42.965Z,18.04
2022-10-22T12:04:17.180Z,18.32
2022-10-22T12:07:00.917Z,18.40
2022-10-22T12:09:32.170Z,18.70
2022-10-22T12:12:14.405Z,18.38
2022-10-22T12:14:57.132Z,18.64
2022-10-22T12:17:25.289Z,18.17
2022-10-22T12:20:02.845Z,18.14
2022-10-22T12:22:33.205Z,18.45
2022-10-22T12:25:02.503Z,18.43
2022-10-22T12:27:38.637Z,19.15
2022-10-22T12:30:18.707Z,19.06
2022-10-22T12:32:45.444Z,19.38
2022-10-22T12:35:20.721Z,19.31
2022-10-22T12:37:57.669Z,19.15
2022-10-22T12:40:29.794Z,18.88
2022-10-22T12:43:20.664Z,18.88
2022-10-22T12:45:50.351Z,19.06
2022-10-22T12:48:24.737Z,18.98
2022-10-22T12:50:59.629Z,19.04
2022-10-22T12:53:34.772Z,18.88
2022-10-22T12:56:11.007Z,19.25
2022-10-22T12:58:42.469Z,19.40
2022-10-22T13:01:15.945Z,19.62
2022-10-22T13:03:47.395Z,19.77
2022-10-22T13:06:18.120Z,19.61
2022-10-22T13:09:05.923Z,19.45
2022-10-22T13:11:56.836Z,19.15
2022-10-22T13:14:39.784Z,19.61
2022-10-22T13:17:37.024Z,19.64
2022-10-22T13:20:21.601Z,19.55
2022-10-22T13:23:05.619Z,19.89
2022-10-22T13:25:35.793Z,19.79
2022-10-22T13:28:19.840Z,19.33
2022-10-22T13:30:59.228Z,19.54
2022-10-22T13:33:40.675Z,19.59
2022-10-22T13:36:16.070Z,19.21
2022-10-22T13:38:44.685Z,19.62
2022-10-22T13:41:30.881Z,19.62
2022-10-22T13:43:58.701Z,19.69
2022-10-22T13:46:27.433Z,19.97
2022-10-22T13:48:56.645Z,19.57
2022-10-22T13:51:27.898Z,19.64
2022-10-22T13:53:54.654Z,19.68
2022-10-22T13:56:21.923Z,19.98
2022-10-22T13:58:49.014Z,20.08
2022-10-22T14:01:20.937Z,20.06
2022-10-22T14:03:50.435Z,20.00
2022-10-22T14:06:19.494Z,20.03
2022-10-22T14:08:49.676Z,19.90
2022-10-22T14:11:17.091Z,19.69
2022-10-22T14:13:44.622Z,19.65
2022-10-22T14:16:21.766Z,19.98
2022-10-22T14:18:51.948Z,20.27
2022-10-22T14:21:19.590Z,20.39
2022-10-22T14:23:47.918Z,19.50
2022-10-22T14:26:22.906Z,20.14
2022-10-22T14:29:08.696Z,20.18
2022-10-22T14:31:38.149Z,20.44
2022-10-22T14:34:04.739Z,20.00
2022-10-22T14:36:33.347Z,20.29
2022-10-22T14:39:00.032Z,20.36
2022-10-22T14:41:28.860Z,20.64
2022-10-22T14:43:55.542Z,20.58
2022-10-22T14:46:22.702Z,20.33
2022-10-22T14:48:49.288Z,20.50
2022-10-22T14:51:18.506Z,19.93
2022-10-22T14:53:46.434Z,20.12
2022-10-22T14:56:15.452Z,20.45
2022-10-22T14:58:42.146Z,20.39
2022-10-22T15:01:09.496Z,20.20
2022-10-22T15:03:37.301Z,20.14
2022-10-22T15:06:04.634Z,20.20
2022-10-22T15:08:31.331Z,20.12
2022-10-22T15:11:07.174Z,19.90
2022-10-22T15:13:34.504Z,20.21
2022-10-22T15:16:05.179Z,20.29
2022-10-22T15:18:31.958Z,19.88
2022-10-22T15:21:02.024Z,20.17
2022-10-22T15:23:29.617Z,20.54
2022-10-22T15:25:56.561Z,20.64
2022-10-22T15:28:24.284Z,20.72
2022-10-22T15:30:59.321Z,20.64
2022-10-22T15:33:27.756Z,20.35
2022-10-22T15:35:55.672Z,19.93
2022-10-22T15:38:26.676Z,20.00
2022-10-22T15:41:05.648Z,20.30
2022-10-22T15:43:33.771Z,20.45
2022-10-22T15:46:13.368Z,20.37
2022-10-22T15:48:40.979Z,20.18
2022-10-22T15:51:13.184Z,20.15
2022-10-22T15:53:40.476Z,19.89
2022-10-22T15:56:07.945Z,19.94
2022-10-22T15:58:34.671Z,19.97
2022-10-22T16:01:07.199Z,19.99
2022-10-22T16:03:34.985Z,19.71
2022-10-22T16:06:02.336Z,19.44
2022-10-22T16:08:31.338Z,19.57
2022-10-22T16:10:58.461Z,19.19
2022-10-22T16:13:25.956Z,19.43
2022-10-22T16:15:53.826Z,19.24
2022-10-22T16:18:20.962Z,19.00
2022-10-22T16:20:47.816Z,18.90
2022-10-22T16:23:15.570Z,18.85
2022-10-22T16:25:42.572Z,18.73
2022-10-22T16:28:11.322Z,18.83
2022-10-22T16:30:39.065Z,18.00
2022-10-22T16:33:07.241Z,18.10
2022-10-22T16:35:34.376Z,18.15
2022-10-22T16:38:01.047Z,17.26
2022-10-22T16:40:27.742Z,17.05
2022-10-22T16:42:54.408Z,16.94
2022-10-22T16:45:21.049Z,16.65
2022-10-22T16:47:47.638Z,16.47
2022-10-22T16:50:14.778Z,16.35
2022-10-22T16:52:41.363Z,16.11
2022-10-22T16:55:08.452Z,15.97
2022-10-22T16:57:36.087Z,15.85
2022-10-22T17:00:05.548Z,16.03
2022-10-22T17:02:32.209Z,16.93
2022-10-22T17:04:58.980Z,16.94
2022-10-22T17:07:25.580Z,16.31
2022-10-22T17:09:52.319Z,16.08
2022-10-22T17:12:18.959Z,15.72
2022-10-22T17:14:45.556Z,16.16
2022-10-22T17:17:12.165Z,16.44
2022-10-22T17:19:38.799Z,16.13
2022-10-22T17:22:08.249Z,16.46
2022-10-22T17:24:34.829Z,16.53
2022-10-22T17:27:01.476Z,16.37
2022-10-22T17:29:28.070Z,16.73
2022-10-22T17:31:54.904Z,16.53
2022-10-22T17:34:21.597Z,16.76
2022-10-22T17:36:48.183Z,16.97
2022-10-22T17:39:17.435Z,16.96
2022-10-22T17:41:44.037Z,17.20
2022-10-22T17:44:12.663Z,16.38
2022-10-22T17:46:39.286Z,16.77
2022-10-22T17:49:12.309Z,16.86
2022-10-22T17:51:38.906Z,16.74
2022-10-22T17:54:08.822Z,16.69
2022-10-22T17:56:36.912Z,16.08
2022-10-22T17:59:03.570Z,16.13
2022-10-22T18:01:34.008Z,15.94
2022-10-22T18:04:07.090Z,16.16
2022-10-22T18:06:34.700Z,16.48
2022-10-22T18:09:05.203Z,16.19
2022-10-22T18:11:31.881Z,16.07
2022-10-22T18:13:58.845Z,16.08
2022-10-22T18:16:26.477Z,16.20
2022-10-22T18:18:55.468Z,15.88
2022-10-22T18:21:24.390Z,15.03
2022-10-22T18:23:51.076Z,15.19
2022-10-22T18:26:20.338Z,15.73
2022-10-22T18:28:49.492Z,16.20
2022-10-22T18:31:19.727Z,15.66
2022-10-22T18:33:47.538Z,15.58
2022-10-22T18:36:20.177Z,15.75
2022-10-22T18:38:51.145Z,15.48
2022-10-22T18:41:18.588Z,16.02
2022-10-22T18:43:50.331Z,16.05
2022-10-22T18:46:16.951Z,16.01
2022-10-22T18:48:43.531Z,15.75
2022-10-22T18:51:10.201Z,15.25
2022-10-22T18:53:37.791Z,15.58
2022-10-22T18:56:06.286Z,15.95
2022-10-22T18:58:39.521Z,15.19
2022-10-22T19:01:09.434Z,15.18
2022-10-22T19:03:36.591Z,15.35
2022-10-22T19:06:03.623Z,14.96
2022-10-22T19:08:30.231Z,14.87
2022-10-22T19:10:56.832Z,14.71
2022-10-22T19:13:23.579Z,14.96
2022-10-22T19:15:50.156Z,15.00
2022-10-22T19:18:16.770Z,14.87
2022-10-22T19:20:47.377Z,14.98
2022-10-22T19:23:18.470Z,15.12
2022-10-22T19:25:47.418Z,14.90
2022-10-22T19:28:14.022Z,15.06
2022-10-22T19:30:41.667Z,15.02
2022-10-22T19:33:08.276Z,14.96
2022-10-22T19:35:36.683Z,15.09
2022-10-22T19:38:03.338Z,15.07
2022-10-22T19:40:29.911Z,15.09
2022-10-22T19:42:56.610Z,15.14
2022-10-22T19:45:23.182Z,15.29
2022-10-22T19:47:49.850Z,15.55
2022-10-22T19:50:16.467Z,15.94
2022-10-22T19:52:43.371Z,15.60
2022-10-22T19:55:10.358Z,15.17
2022-10-22T19:57:36.987Z,15.66
2022-10-22T20:00:04.897Z,15.81
2022-10-22T20:02:31.523Z,16.16
2022-10-22T20:04:58.176Z,16.53
2022-10-22T20:07:25.071Z,16.22
2022-10-22T20:09:51.714Z,16.24
2022-10-22T20:12:18.367Z,16.09
2022-10-22T20:14:45.096Z,16.02
2022-10-22T20:17:13.057Z,15.54
2022-10-22T20:19:39.848Z,15.15
2022-10-22T20:22:06.540Z,15.26
2022-10-22T20:24:33.897Z,15.43
2022-10-22T20:27:00.623Z,15.69
2022-10-22T20:29:27.308Z,15.16
2022-10-22T20:31:53.945Z,15.17
2022-10-22T20:34:21.127Z,15.26
2022-10-22T20:36:47.797Z,15.41
2022-10-22T20:39:15.801Z,15.73
2022-10-22T20:41:42.548Z,15.79
2022-10-22T20:44:15.758Z,15.75
2022-10-22T20:46:42.742Z,15.34
2022-10-22T20:49:12.823Z,16.18
2022-10-22T20:51:39.626Z,16.15
2022-10-22T20:54:07.771Z,16.02
2022-10-22T20:56:39.995Z,15.67
2022-10-22T20:59:08.354Z,15.28
2022-10-22T21:01:39.448Z,15.98
2022-10-22T21:04:07.351Z,16.26
2022-10-22T21:06:34.585Z,15.63
2022-10-22T21:09:02.794Z,16.11
2022-10-22T21:11:29.429Z,15.41
2022-10-22T21:13:56.046Z,15.08
2022-10-22T21:16:22.932Z,15.77
2022-10-22T21:18:49.542Z,15.62
2022-10-22T21:21:16.110Z,15.51
2022-10-22T21:23:42.743Z,15.20
2022-10-22T21:26:09.347Z,15.77
2022-10-22T21:28:37.624Z,15.64
2022-10-22T21:31:06.854Z,15.28
2022-10-22T21:33:38.726Z,15.33
2022-10-22T21:36:06.956Z,15.63
2022-10-22T21:38:34.655Z,15.77
2022-10-22T21:41:08.333Z,14.96
2022-10-22T21:43:38.299Z,15.06
2022-10-22T21:46:20.094Z,15.52
2022-10-22T21:48:47.423Z,14.97
2022-10-22T21:51:17.307Z,15.03
2022-10-22T21:53:44.899Z,14.88
2022-10-22T21:56:21.618Z,15.07
2022-10-22T21:58:48.424Z,15.36
2022-10-22T22:01:16.446Z,15.02
2022-10-22T22:03:46.350Z,14.78
2022-10-22T22:06:13.618Z,15.07
2022-10-22T22:08:40.425Z,14.68
2022-10-22T22:11:10.747Z,14.49
2022-10-22T22:13:37.618Z,14.31
2022-10-22T22:16:07.670Z,14.71
2022-10-22T22:18:36.163Z,15.01
2022-10-22T22:21:06.322Z,14.41
2022-10-22T22:23:33.772Z,14.66
2022-10-22T22:26:01.731Z,14.70
2022-10-22T22:28:33.039Z,14.97
2022-10-22T22:31:00.331Z,15.36
2022-10-22T22:33:27.976Z,15.20
2022-10-22T22:35:58.675Z,14.65
2022-10-22T22:38:25.328Z,14.66
2022-10-22T22:40:52.326Z,15.01
2022-10-22T22:43:18.951Z,15.23
2022-10-22T22:45:45.659Z,15.26
2022-10-22T22:48:12.242Z,15.48
2022-10-22T22:50:38.896Z,14.66
2022-10-22T22:53:05.518Z,15.16
2022-10-22T22:55:32.171Z,14.65
2022-10-22T22:57:58.850Z,14.85
2022-10-22T23:00:25.634Z,15.16
2022-10-22T23:02:55.608Z,15.26
2022-10-22T23:05:22.235Z,15.10
2022-10-22T23:07:48.831Z,14.87
2022-10-22T23:10:15.607Z,14.42
2022-10-22T23:12:42.389Z,14.24
2022-10-22T23:15:09.565Z,14.71
2022-10-22T23:20:08.327Z,15.39
2022-10-22T23:22:34.900Z,15.31
2022-10-22T23:25:01.767Z,14.37
2022-10-22T23:27:30.659Z,15.09
2022-10-22T23:29:57.309Z,15.48
2022-10-22T23:32:23.921Z,15.17
2022-10-22T23:34:50.539Z,14.11
2022-10-22T23:37:17.187Z,14.15
2022-10-22T23:39:43.767Z,14.64
2022-10-22T23:42:10.621Z,14.48
2022-10-22T23:44:37.202Z,14.36
2022-10-22T23:47:03.796Z,14.24
2022-10-22T23:49:30.388Z,14.64
2022-10-22T23:51:56.965Z,14.84
2022-10-22T23:54:23.526Z,14.85
2022-10-22T23:56:50.086Z,14.52
2022-10-22T23:59:16.692Z,14.25
